sensor_id;sensor_type;location;lat;lon;timestamp;P1;durP1;ratioP1;P2;durP2;ratioP2
11414;SDS011;5763;42.714;23.244;2022-12-20T00:02:13;11.35;;;6.68;;
11414;SDS011;5763;42.714;23.244;2022-12-20T00:04:39;9.95;;;6.55;;
11414;SDS011;5763;42.714;23.244;2022-12-20T00:07:06;10.55;;;6.85;;
11414;SDS011;5763;42.714;23.244;2022-12-20T00:09:34;11.30;;;7.32;;
11414;SDS011;5763;42.714;23.244;2022-12-20T00:12:02;13.35;;;6.85;;
11414;SDS011;5763;42.714;23.244;2022-12-20T00:14:29;13.13;;;7.05;;
11414;SDS011;5763;42.714;23.244;2022-12-20T00:16:56;9.23;;;6.85;;
11414;SDS011;5763;42.714;23.244;2022-12-20T00:19:23;11.45;;;7.22;;
11414;SDS011;5763;42.714;23.244;2022-12-20T00:21:50;9.50;;;6.63;;
11414;SDS011;5763;42.714;23.244;2022-12-20T00:24:17;10.98;;;6.45;;
11414;SDS011;5763;42.714;23.244;2022-12-20T00:26:44;12.18;;;7.13;;
11414;SDS011;5763;42.714;23.244;2022-12-20T00:29:12;11.20;;;7.63;;
11414;SDS011;5763;42.714;23.244;2022-12-20T00:31:39;10.57;;;6.72;;
11414;SDS011;5763;42.714;23.244;2022-12-20T00:34:06;11.60;;;6.93;;
11414;SDS011;5763;42.714;23.244;2022-12-20T00:36:34;12.60;;;7.25;;
11414;SDS011;5763;42.714;23.244;2022-12-20T00:39:00;10.02;;;7.22;;
11414;SDS011;5763;42.714;23.244;2022-12-20T00:41:28;10.05;;;7.05;;
11414;SDS011;5763;42.714;23.244;2022-12-20T00:43:56;11.18;;;6.85;;
11414;SDS011;5763;42.714;23.244;2022-12-20T00:46:25;11.85;;;6.85;;
11414;SDS011;5763;42.714;23.244;2022-12-20T00:48:52;9.52;;;6.95;;
11414;SDS011;5763;42.714;23.244;2022-12-20T00:51:21;11.27;;;6.97;;
11414;SDS011;5763;42.714;23.244;2022-12-20T00:53:50;11.88;;;6.82;;
11414;SDS011;5763;42.714;23.244;2022-12-20T00:56:17;9.40;;;6.75;;
11414;SDS011;5763;42.714;23.244;2022-12-20T00:58:44;10.80;;;7.13;;
11414;SDS011;5763;42.714;23.244;2022-12-20T01:01:14;9.02;;;5.80;;
11414;SDS011;5763;42.714;23.244;2022-12-20T01:03:44;9.30;;;6.30;;
11414;SDS011;5763;42.714;23.244;2022-12-20T01:06:11;11.02;;;6.07;;
11414;SDS011;5763;42.714;23.244;2022-12-20T01:08:38;11.15;;;6.55;;
11414;SDS011;5763;42.714;23.244;2022-12-20T01:11:06;10.18;;;6.50;;
11414;SDS011;5763;42.714;23.244;2022-12-20T01:13:35;11.07;;;6.22;;
11414;SDS011;5763;42.714;23.244;2022-12-20T01:16:05;8.98;;;6.00;;
11414;SDS011;5763;42.714;23.244;2022-12-20T01:18:32;8.38;;;6.03;;
11414;SDS011;5763;42.714;23.244;2022-12-20T01:21:01;10.27;;;6.25;;
11414;SDS011;5763;42.714;23.244;2022-12-20T01:23:28;10.30;;;5.57;;
11414;SDS011;5763;42.714;23.244;2022-12-20T01:25:56;8.02;;;5.80;;
11414;SDS011;5763;42.714;23.244;2022-12-20T01:28:24;10.02;;;5.75;;
11414;SDS011;5763;42.714;23.244;2022-12-20T01:30:51;8.65;;;5.78;;
11414;SDS011;5763;42.714;23.244;2022-12-20T01:33:18;10.27;;;5.97;;
11414;SDS011;5763;42.714;23.244;2022-12-20T01:35:53;8.98;;;5.30;;
11414;SDS011;5763;42.714;23.244;2022-12-20T01:38:22;8.20;;;5.53;;
11414;SDS011;5763;42.714;23.244;2022-12-20T01:40:49;10.52;;;6.45;;
11414;SDS011;5763;42.714;23.244;2022-12-20T01:43:17;8.93;;;6.05;;
11414;SDS011;5763;42.714;23.244;2022-12-20T01:45:45;8.90;;;5.55;;
11414;SDS011;5763;42.714;23.244;2022-12-20T01:48:12;7.18;;;5.40;;
11414;SDS011;5763;42.714;23.244;2022-12-20T01:50:41;9.25;;;5.30;;
11414;SDS011;5763;42.714;23.244;2022-12-20T01:53:08;7.70;;;5.28;;
11414;SDS011;5763;42.714;23.244;2022-12-20T01:55:37;7.85;;;5.43;;
11414;SDS011;5763;42.714;23.244;2022-12-20T01:58:05;8.40;;;5.00;;
11414;SDS011;5763;42.714;23.244;2022-12-20T02:00:34;9.57;;;6.22;;
11414;SDS011;5763;42.714;23.244;2022-12-20T02:03:03;7.47;;;5.00;;
11414;SDS011;5763;42.714;23.244;2022-12-20T02:05:32;8.15;;;5.72;;
11414;SDS011;5763;42.714;23.244;2022-12-20T02:08:00;6.95;;;5.38;;
11414;SDS011;5763;42.714;23.244;2022-12-20T02:10:30;8.82;;;5.47;;
11414;SDS011;5763;42.714;23.244;2022-12-20T02:13:11;8.70;;;6.20;;
11414;SDS011;5763;42.714;23.244;2022-12-20T02:15:48;10.65;;;5.45;;
11414;SDS011;5763;42.714;23.244;2022-12-20T02:18:20;10.45;;;6.60;;
11414;SDS011;5763;42.714;23.244;2022-12-20T02:21:01;10.55;;;5.97;;
11414;SDS011;5763;42.714;23.244;2022-12-20T02:30:08;8.45;;;5.65;;
11414;SDS011;5763;42.714;23.244;2022-12-20T02:32:38;8.13;;;5.03;;
11414;SDS011;5763;42.714;23.244;2022-12-20T02:35:10;9.43;;;5.85;;
11414;SDS011;5763;42.714;23.244;2022-12-20T02:37:45;6.90;;;5.30;;
11414;SDS011;5763;42.714;23.244;2022-12-20T02:40:18;8.10;;;5.70;;
11414;SDS011;5763;42.714;23.244;2022-12-20T02:42:47;9.65;;;5.82;;
11414;SDS011;5763;42.714;23.244;2022-12-20T02:45:19;7.75;;;5.28;;
11414;SDS011;5763;42.714;23.244;2022-12-20T02:47:48;8.90;;;6.15;;
11414;SDS011;5763;42.714;23.244;2022-12-20T02:50:20;9.65;;;5.80;;
11414;SDS011;5763;42.714;23.244;2022-12-20T02:52:49;11.00;;;5.68;;
11414;SDS011;5763;42.714;23.244;2022-12-20T02:55:17;10.40;;;6.00;;
11414;SDS011;5763;42.714;23.244;2022-12-20T02:57:48;11.15;;;6.20;;
11414;SDS011;5763;42.714;23.244;2022-12-20T03:00:22;8.52;;;6.20;;
11414;SDS011;5763;42.714;23.244;2022-12-20T03:02:50;8.88;;;5.93;;
11414;SDS011;5763;42.714;23.244;2022-12-20T03:05:36;9.02;;;5.85;;
11414;SDS011;5763;42.714;23.244;2022-12-20T03:08:10;8.38;;;5.63;;
11414;SDS011;5763;42.714;23.244;2022-12-20T03:10:36;10.52;;;5.80;;
11414;SDS011;5763;42.714;23.244;2022-12-20T03:13:03;8.25;;;5.63;;
11414;SDS011;5763;42.714;23.244;2022-12-20T03:15:31;9.70;;;5.82;;
11414;SDS011;5763;42.714;23.244;2022-12-20T03:17:58;9.13;;;6.35;;
11414;SDS011;5763;42.714;23.244;2022-12-20T03:20:25;12.35;;;6.53;;
11414;SDS011;5763;42.714;23.244;2022-12-20T03:22:52;8.45;;;6.15;;
11414;SDS011;5763;42.714;23.244;2022-12-20T03:25:18;9.45;;;6.18;;
11414;SDS011;5763;42.714;23.244;2022-12-20T03:27:45;8.60;;;5.78;;
11414;SDS011;5763;42.714;23.244;2022-12-20T03:30:12;9.70;;;6.00;;
11414;SDS011;5763;42.714;23.244;2022-12-20T03:32:41;9.70;;;6.22;;
11414;SDS011;5763;42.714;23.244;2022-12-20T03:35:08;8.88;;;6.22;;
11414;SDS011;5763;42.714;23.244;2022-12-20T03:37:35;7.93;;;5.72;;
11414;SDS011;5763;42.714;23.244;2022-12-20T03:40:02;10.05;;;6.25;;
11414;SDS011;5763;42.714;23.244;2022-12-20T03:42:30;10.60;;;6.03;;
11414;SDS011;5763;42.714;23.244;2022-12-20T03:44:57;8.90;;;6.03;;
11414;SDS011;5763;42.714;23.244;2022-12-20T03:47:24;8.70;;;5.97;;
11414;SDS011;5763;42.714;23.244;2022-12-20T03:49:52;11.32;;;6.43;;
11414;SDS011;5763;42.714;23.244;2022-12-20T03:52:18;9.10;;;6.05;;
11414;SDS011;5763;42.714;23.244;2022-12-20T03:54:45;9.05;;;6.32;;
11414;SDS011;5763;42.714;23.244;2022-12-20T03:57:12;9.98;;;5.85;;
11414;SDS011;5763;42.714;23.244;2022-12-20T03:59:39;9.32;;;6.47;;
11414;SDS011;5763;42.714;23.244;2022-12-20T04:02:05;9.75;;;5.88;;
11414;SDS011;5763;42.714;23.244;2022-12-20T04:04:32;8.88;;;5.90;;
11414;SDS011;5763;42.714;23.244;2022-12-20T04:07:00;8.80;;;5.95;;
11414;SDS011;5763;42.714;23.244;2022-12-20T04:09:27;8.68;;;6.50;;
11414;SDS011;5763;42.714;23.244;2022-12-20T04:11:54;9.82;;;6.47;;
11414;SDS011;5763;42.714;23.244;2022-12-20T04:14:21;10.90;;;7.03;;
11414;SDS011;5763;42.714;23.244;2022-12-20T04:16:47;9.25;;;6.28;;
11414;SDS011;5763;42.714;23.244;2022-12-20T04:19:14;9.73;;;6.95;;
11414;SDS011;5763;42.714;23.244;2022-12-20T04:21:41;9.60;;;7.00;;
11414;SDS011;5763;42.714;23.244;2022-12-20T04:24:09;10.65;;;7.43;;
11414;SDS011;5763;42.714;23.244;2022-12-20T04:26:36;9.00;;;6.82;;
11414;SDS011;5763;42.714;23.244;2022-12-20T04:29:03;11.57;;;7.25;;
11414;SDS011;5763;42.714;23.244;2022-12-20T04:31:30;9.77;;;6.70;;
11414;SDS011;5763;42.714;23.244;2022-12-20T04:33:57;9.48;;;7.13;;
11414;SDS011;5763;42.714;23.244;2022-12-20T04:36:23;12.73;;;6.90;;
11414;SDS011;5763;42.714;23.244;2022-12-20T04:38:50;11.30;;;7.00;;
11414;SDS011;5763;42.714;23.244;2022-12-20T04:41:19;10.88;;;7.30;;
11414;SDS011;5763;42.714;23.244;2022-12-20T04:43:49;11.40;;;7.50;;
11414;SDS011;5763;42.714;23.244;2022-12-20T04:46:17;10.25;;;7.28;;
11414;SDS011;5763;42.714;23.244;2022-12-20T04:48:44;11.43;;;7.35;;
11414;SDS011;5763;42.714;23.244;2022-12-20T04:51:10;11.05;;;7.18;;
11414;SDS011;5763;42.714;23.244;2022-12-20T04:53:37;10.10;;;7.15;;
11414;SDS011;5763;42.714;23.244;2022-12-20T04:56:12;12.68;;;7.82;;
11414;SDS011;5763;42.714;23.244;2022-12-20T04:58:42;10.07;;;7.30;;
11414;SDS011;5763;42.714;23.244;2022-12-20T05:01:10;12.70;;;7.72;;
11414;SDS011;5763;42.714;23.244;2022-12-20T05:03:37;10.63;;;7.13;;
11414;SDS011;5763;42.714;23.244;2022-12-20T05:06:04;12.32;;;7.28;;
11414;SDS011;5763;42.714;23.244;2022-12-20T05:08:31;9.93;;;7.47;;
11414;SDS011;5763;42.714;23.244;2022-12-20T05:10:59;10.68;;;7.82;;
11414;SDS011;5763;42.714;23.244;2022-12-20T05:13:26;11.35;;;7.03;;
11414;SDS011;5763;42.714;23.244;2022-12-20T05:15:55;12.02;;;7.65;;
11414;SDS011;5763;42.714;23.244;2022-12-20T05:18:23;10.10;;;7.30;;
11414;SDS011;5763;42.714;23.244;2022-12-20T05:20:53;10.45;;;7.03;;
11414;SDS011;5763;42.714;23.244;2022-12-20T05:23:34;9.75;;;6.95;;
11414;SDS011;5763;42.714;23.244;2022-12-20T05:26:19;11.00;;;7.05;;
11414;SDS011;5763;42.714;23.244;2022-12-20T05:28:46;11.25;;;7.97;;
11414;SDS011;5763;42.714;23.244;2022-12-20T05:31:14;11.45;;;7.53;;
11414;SDS011;5763;42.714;23.244;2022-12-20T05:33:41;10.82;;;7.22;;
11414;SDS011;5763;42.714;23.244;2022-12-20T05:36:08;12.75;;;7.30;;
11414;SDS011;5763;42.714;23.244;2022-12-20T05:38:35;11.95;;;8.02;;
11414;SDS011;5763;42.714;23.244;2022-12-20T05:41:01;11.13;;;7.13;;
11414;SDS011;5763;42.714;23.244;2022-12-20T05:43:30;12.20;;;7.40;;
11414;SDS011;5763;42.714;23.244;2022-12-20T05:45:58;12.38;;;7.78;;
11414;SDS011;5763;42.714;23.244;2022-12-20T05:48:26;9.52;;;7.10;;
11414;SDS011;5763;42.714;23.244;2022-12-20T05:50:52;13.50;;;8.35;;
11414;SDS011;5763;42.714;23.244;2022-12-20T05:53:19;14.13;;;8.98;;
11414;SDS011;5763;42.714;23.244;2022-12-20T05:55:47;11.13;;;8.38;;
11414;SDS011;5763;42.714;23.244;2022-12-20T05:58:15;15.13;;;8.85;;
11414;SDS011;5763;42.714;23.244;2022-12-20T06:00:42;11.98;;;8.07;;
11414;SDS011;5763;42.714;23.244;2022-12-20T06:03:11;14.95;;;8.48;;
11414;SDS011;5763;42.714;23.244;2022-12-20T06:05:40;16.23;;;9.00;;
11414;SDS011;5763;42.714;23.244;2022-12-20T06:08:09;12.35;;;8.45;;
11414;SDS011;5763;42.714;23.244;2022-12-20T06:10:36;15.05;;;9.15;;
11414;SDS011;5763;42.714;23.244;2022-12-20T06:13:04;13.10;;;8.73;;
11414;SDS011;5763;42.714;23.244;2022-12-20T06:15:31;17.70;;;10.18;;
11414;SDS011;5763;42.714;23.244;2022-12-20T06:17:58;14.57;;;9.10;;
11414;SDS011;5763;42.714;23.244;2022-12-20T06:20:25;16.83;;;10.85;;
11414;SDS011;5763;42.714;23.244;2022-12-20T06:22:53;16.88;;;9.63;;
11414;SDS011;5763;42.714;23.244;2022-12-20T06:25:20;15.88;;;9.77;;
11414;SDS011;5763;42.714;23.244;2022-12-20T06:27:47;15.27;;;10.43;;
11414;SDS011;5763;42.714;23.244;2022-12-20T06:30:14;18.02;;;12.02;;
11414;SDS011;5763;42.714;23.244;2022-12-20T06:32:41;18.10;;;11.45;;
11414;SDS011;5763;42.714;23.244;2022-12-20T06:35:08;16.55;;;11.45;;
11414;SDS011;5763;42.714;23.244;2022-12-20T06:37:35;18.77;;;11.25;;
11414;SDS011;5763;42.714;23.244;2022-12-20T06:40:07;17.88;;;12.30;;
11414;SDS011;5763;42.714;23.244;2022-12-20T06:42:35;19.38;;;11.43;;
11414;SDS011;5763;42.714;23.244;2022-12-20T06:45:02;17.90;;;10.48;;
11414;SDS011;5763;42.714;23.244;2022-12-20T06:47:29;17.60;;;10.93;;
11414;SDS011;5763;42.714;23.244;2022-12-20T06:49:56;17.35;;;11.60;;
11414;SDS011;5763;42.714;23.244;2022-12-20T06:52:22;15.18;;;9.55;;
11414;SDS011;5763;42.714;23.244;2022-12-20T06:54:50;14.40;;;9.02;;
11414;SDS011;5763;42.714;23.244;2022-12-20T06:57:18;15.52;;;9.30;;
11414;SDS011;5763;42.714;23.244;2022-12-20T06:59:44;15.48;;;9.48;;
11414;SDS011;5763;42.714;23.244;2022-12-20T07:02:12;16.55;;;9.05;;
11414;SDS011;5763;42.714;23.244;2022-12-20T07:04:39;15.68;;;9.93;;
11414;SDS011;5763;42.714;23.244;2022-12-20T07:07:06;15.30;;;9.38;;
11414;SDS011;5763;42.714;23.244;2022-12-20T07:09:33;13.18;;;9.60;;
11414;SDS011;5763;42.714;23.244;2022-12-20T07:12:02;16.02;;;9.40;;
11414;SDS011;5763;42.714;23.244;2022-12-20T07:14:30;15.38;;;10.60;;
11414;SDS011;5763;42.714;23.244;2022-12-20T07:16:57;18.67;;;10.02;;
11414;SDS011;5763;42.714;23.244;2022-12-20T07:19:24;16.15;;;10.05;;
11414;SDS011;5763;42.714;23.244;2022-12-20T07:21:50;16.45;;;8.65;;
11414;SDS011;5763;42.714;23.244;2022-12-20T07:24:17;13.30;;;8.63;;
11414;SDS011;5763;42.714;23.244;2022-12-20T07:26:44;12.50;;;7.88;;
11414;SDS011;5763;42.714;23.244;2022-12-20T07:29:10;11.30;;;7.03;;
11414;SDS011;5763;42.714;23.244;2022-12-20T07:31:39;12.48;;;7.68;;
11414;SDS011;5763;42.714;23.244;2022-12-20T07:34:05;12.43;;;8.07;;
11414;SDS011;5763;42.714;23.244;2022-12-20T07:36:32;11.70;;;8.18;;
11414;SDS011;5763;42.714;23.244;2022-12-20T07:38:59;9.35;;;7.15;;
11414;SDS011;5763;42.714;23.244;2022-12-20T07:41:26;11.52;;;7.20;;
11414;SDS011;5763;42.714;23.244;2022-12-20T07:43:53;15.60;;;8.23;;
11414;SDS011;5763;42.714;23.244;2022-12-20T07:46:22;14.10;;;9.60;;
11414;SDS011;5763;42.714;23.244;2022-12-20T07:48:50;14.25;;;9.60;;
11414;SDS011;5763;42.714;23.244;2022-12-20T07:51:17;13.48;;;8.80;;
11414;SDS011;5763;42.714;23.244;2022-12-20T07:53:49;13.85;;;8.27;;
11414;SDS011;5763;42.714;23.244;2022-12-20T07:56:20;10.70;;;7.78;;
11414;SDS011;5763;42.714;23.244;2022-12-20T07:58:47;12.43;;;7.53;;
11414;SDS011;5763;42.714;23.244;2022-12-20T08:01:17;11.07;;;8.43;;
11414;SDS011;5763;42.714;23.244;2022-12-20T08:03:46;14.90;;;8.80;;
11414;SDS011;5763;42.714;23.244;2022-12-20T08:06:18;13.20;;;8.27;;
11414;SDS011;5763;42.714;23.244;2022-12-20T08:08:45;10.60;;;7.70;;
11414;SDS011;5763;42.714;23.244;2022-12-20T08:11:15;10.02;;;7.65;;
11414;SDS011;5763;42.714;23.244;2022-12-20T08:13:43;10.88;;;6.93;;
11414;SDS011;5763;42.714;23.244;2022-12-20T08:16:11;11.15;;;7.05;;
11414;SDS011;5763;42.714;23.244;2022-12-20T08:18:37;9.70;;;7.38;;
11414;SDS011;5763;42.714;23.244;2022-12-20T08:21:04;11.30;;;7.55;;
11414;SDS011;5763;42.714;23.244;2022-12-20T08:23:32;12.85;;;8.20;;
11414;SDS011;5763;42.714;23.244;2022-12-20T08:26:00;11.07;;;7.75;;
11414;SDS011;5763;42.714;23.244;2022-12-20T08:28:27;9.77;;;8.18;;
11414;SDS011;5763;42.714;23.244;2022-12-20T08:30:58;9.18;;;7.30;;
11414;SDS011;5763;42.714;23.244;2022-12-20T08:33:26;11.63;;;7.80;;
11414;SDS011;5763;42.714;23.244;2022-12-20T08:35:56;10.70;;;7.47;;
11414;SDS011;5763;42.714;23.244;2022-12-20T08:38:24;11.60;;;6.70;;
11414;SDS011;5763;42.714;23.244;2022-12-20T08:40:53;11.55;;;7.22;;
11414;SDS011;5763;42.714;23.244;2022-12-20T08:43:20;10.05;;;7.32;;
11414;SDS011;5763;42.714;23.244;2022-12-20T08:45:50;12.73;;;8.60;;
11414;SDS011;5763;42.714;23.244;2022-12-20T08:48:18;11.35;;;8.23;;
11414;SDS011;5763;42.714;23.244;2022-12-20T08:50:45;14.10;;;8.77;;
11414;SDS011;5763;42.714;23.244;2022-12-20T08:53:12;12.48;;;8.43;;
11414;SDS011;5763;42.714;23.244;2022-12-20T08:55:39;12.93;;;8.10;;
11414;SDS011;5763;42.714;23.244;2022-12-20T08:58:07;13.70;;;8.57;;
11414;SDS011;5763;42.714;23.244;2022-12-20T09:00:34;10.15;;;8.43;;
11414;SDS011;5763;42.714;23.244;2022-12-20T09:03:02;11.13;;;8.13;;
11414;SDS011;5763;42.714;23.244;2022-12-20T09:05:28;12.80;;;7.85;;
11414;SDS011;5763;42.714;23.244;2022-12-20T09:07:55;12.25;;;8.32;;
11414;SDS011;5763;42.714;23.244;2022-12-20T09:10:22;12.23;;;7.70;;
11414;SDS011;5763;42.714;23.244;2022-12-20T09:12:49;12.63;;;7.82;;
11414;SDS011;5763;42.714;23.244;2022-12-20T09:15:17;10.85;;;8.13;;
11414;SDS011;5763;42.714;23.244;2022-12-20T09:17:43;10.40;;;7.88;;
11414;SDS011;5763;42.714;23.244;2022-12-20T09:20:11;11.88;;;8.32;;
11414;SDS011;5763;42.714;23.244;2022-12-20T09:22:40;13.77;;;8.27;;
11414;SDS011;5763;42.714;23.244;2022-12-20T09:25:08;10.35;;;7.78;;
11414;SDS011;5763;42.714;23.244;2022-12-20T09:27:36;11.60;;;7.97;;
11414;SDS011;5763;42.714;23.244;2022-12-20T09:30:04;11.18;;;7.82;;
11414;SDS011;5763;42.714;23.244;2022-12-20T09:32:36;14.75;;;9.45;;
11414;SDS011;5763;42.714;23.244;2022-12-20T09:35:04;10.48;;;8.50;;
11414;SDS011;5763;42.714;23.244;2022-12-20T09:37:32;12.18;;;8.45;;
11414;SDS011;5763;42.714;23.244;2022-12-20T09:39:59;14.38;;;8.15;;
11414;SDS011;5763;42.714;23.244;2022-12-20T09:42:27;12.80;;;8.25;;
11414;SDS011;5763;42.714;23.244;2022-12-20T09:45:02;11.18;;;7.90;;
11414;SDS011;5763;42.714;23.244;2022-12-20T09:47:34;11.65;;;8.13;;
11414;SDS011;5763;42.714;23.244;2022-12-20T09:50:03;11.18;;;8.07;;
11414;SDS011;5763;42.714;23.244;2022-12-20T09:52:40;10.45;;;7.93;;
11414;SDS011;5763;42.714;23.244;2022-12-20T09:55:38;10.10;;;7.82;;
11414;SDS011;5763;42.714;23.244;2022-12-20T09:58:28;10.68;;;8.20;;
11414;SDS011;5763;42.714;23.244;2022-12-20T10:01:09;11.85;;;7.50;;
11414;SDS011;5763;42.714;23.244;2022-12-20T10:03:43;11.43;;;6.88;;
11414;SDS011;5763;42.714;23.244;2022-12-20T10:06:16;11.93;;;7.95;;
11414;SDS011;5763;42.714;23.244;2022-12-20T10:08:54;11.10;;;7.60;;
11414;SDS011;5763;42.714;23.244;2022-12-20T10:11:29;10.15;;;7.28;;
11414;SDS011;5763;42.714;23.244;2022-12-20T10:14:12;12.73;;;7.88;;
11414;SDS011;5763;42.714;23.244;2022-12-20T10:16:44;10.88;;;8.25;;
11414;SDS011;5763;42.714;23.244;2022-12-20T10:19:27;9.52;;;7.63;;
11414;SDS011;5763;42.714;23.244;2022-12-20T10:22:13;10.98;;;8.30;;
11414;SDS011;5763;42.714;23.244;2022-12-20T10:24:47;12.85;;;7.97;;
11414;SDS011;5763;42.714;23.244;2022-12-20T10:27:22;11.48;;;8.20;;
11414;SDS011;5763;42.714;23.244;2022-12-20T10:29:50;13.18;;;8.00;;
11414;SDS011;5763;42.714;23.244;2022-12-20T10:32:18;13.13;;;7.95;;
11414;SDS011;5763;42.714;23.244;2022-12-20T10:34:51;13.95;;;8.10;;
11414;SDS011;5763;42.714;23.244;2022-12-20T10:37:23;9.93;;;7.75;;
11414;SDS011;5763;42.714;23.244;2022-12-20T10:39:50;8.63;;;6.72;;
11414;SDS011;5763;42.714;23.244;2022-12-20T10:42:24;8.30;;;6.78;;
11414;SDS011;5763;42.714;23.244;2022-12-20T10:44:57;10.77;;;7.00;;
11414;SDS011;5763;42.714;23.244;2022-12-20T10:47:28;9.85;;;7.30;;
11414;SDS011;5763;42.714;23.244;2022-12-20T10:53:01;10.30;;;7.90;;
11414;SDS011;5763;42.714;23.244;2022-12-20T10:55:44;10.02;;;7.40;;
11414;SDS011;5763;42.714;23.244;2022-12-20T10:58:12;11.45;;;7.28;;
11414;SDS011;5763;42.714;23.244;2022-12-20T11:00:41;9.70;;;7.13;;
11414;SDS011;5763;42.714;23.244;2022-12-20T11:03:15;12.02;;;7.57;;
11414;SDS011;5763;42.714;23.244;2022-12-20T11:05:55;10.48;;;7.68;;
11414;SDS011;5763;42.714;23.244;2022-12-20T11:08:24;10.30;;;7.38;;
11414;SDS011;5763;42.714;23.244;2022-12-20T11:11:08;11.43;;;8.20;;
11414;SDS011;5763;42.714;23.244;2022-12-20T11:13:38;11.60;;;7.13;;
11414;SDS011;5763;42.714;23.244;2022-12-20T11:16:19;9.95;;;7.50;;
11414;SDS011;5763;42.714;23.244;2022-12-20T11:18:52;14.30;;;7.90;;
11414;SDS011;5763;42.714;23.244;2022-12-20T11:21:33;10.65;;;8.23;;
11414;SDS011;5763;42.714;23.244;2022-12-20T11:24:10;12.27;;;7.80;;
11414;SDS011;5763;42.714;23.244;2022-12-20T11:26:49;10.93;;;7.40;;
11414;SDS011;5763;42.714;23.244;2022-12-20T11:29:35;9.88;;;7.03;;
11414;SDS011;5763;42.714;23.244;2022-12-20T11:32:15;9.30;;;7.40;;
11414;SDS011;5763;42.714;23.244;2022-12-20T11:34:57;11.32;;;7.88;;
11414;SDS011;5763;42.714;23.244;2022-12-20T11:37:38;10.10;;;7.57;;
11414;SDS011;5763;42.714;23.244;2022-12-20T11:40:20;9.18;;;7.35;;
11414;SDS011;5763;42.714;23.244;2022-12-20T11:43:11;10.23;;;7.82;;
11414;SDS011;5763;42.714;23.244;2022-12-20T11:46:02;12.93;;;8.05;;
11414;SDS011;5763;42.714;23.244;2022-12-20T11:48:56;10.10;;;8.05;;
11414;SDS011;5763;42.714;23.244;2022-12-20T11:51:38;10.23;;;8.02;;
11414;SDS011;5763;42.714;23.244;2022-12-20T11:54:13;12.02;;;7.68;;
11414;SDS011;5763;42.714;23.244;2022-12-20T11:56:49;9.45;;;7.95;;
11414;SDS011;5763;42.714;23.244;2022-12-20T11:59:24;11.75;;;7.63;;
11414;SDS011;5763;42.714;23.244;2022-12-20T12:01:59;10.13;;;7.85;;
11414;SDS011;5763;42.714;23.244;2022-12-20T12:04:33;10.10;;;7.78;;
11414;SDS011;5763;42.714;23.244;2022-12-20T12:07:07;9.82;;;7.80;;
11414;SDS011;5763;42.714;23.244;2022-12-20T12:09:43;10.73;;;8.13;;
11414;SDS011;5763;42.714;23.244;2022-12-20T12:12:18;10.63;;;8.10;;
11414;SDS011;5763;42.714;23.244;2022-12-20T12:14:52;8.50;;;7.40;;
11414;SDS011;5763;42.714;23.244;2022-12-20T12:17:27;11.43;;;8.23;;
11414;SDS011;5763;42.714;23.244;2022-12-20T12:20:08;12.40;;;8.50;;
11414;SDS011;5763;42.714;23.244;2022-12-20T12:22:48;10.43;;;7.80;;
11414;SDS011;5763;42.714;23.244;2022-12-20T12:25:22;8.43;;;7.53;;
11414;SDS011;5763;42.714;23.244;2022-12-20T12:27:50;9.80;;;7.82;;
11414;SDS011;5763;42.714;23.244;2022-12-20T12:30:18;11.82;;;8.43;;
11414;SDS011;5763;42.714;23.244;2022-12-20T12:32:47;13.65;;;8.23;;
11414;SDS011;5763;42.714;23.244;2022-12-20T12:38:15;11.82;;;8.63;;
11414;SDS011;5763;42.714;23.244;2022-12-20T12:43:57;13.00;;;8.07;;
11414;SDS011;5763;42.714;23.244;2022-12-20T12:46:46;11.70;;;8.65;;
11414;SDS011;5763;42.714;23.244;2022-12-20T12:49:18;10.70;;;7.45;;
11414;SDS011;5763;42.714;23.244;2022-12-20T12:51:48;9.55;;;7.90;;
11414;SDS011;5763;42.714;23.244;2022-12-20T12:54:18;9.27;;;8.05;;
11414;SDS011;5763;42.714;23.244;2022-12-20T12:56:50;10.43;;;7.95;;
11414;SDS011;5763;42.714;23.244;2022-12-20T12:59:21;9.25;;;7.53;;
11414;SDS011;5763;42.714;23.244;2022-12-20T13:02:32;10.55;;;7.70;;
11414;SDS011;5763;42.714;23.244;2022-12-20T13:05:28;8.35;;;7.45;;
11414;SDS011;5763;42.714;23.244;2022-12-20T13:07:57;9.27;;;7.05;;
11414;SDS011;5763;42.714;23.244;2022-12-20T13:13:26;11.32;;;7.40;;
11414;SDS011;5763;42.714;23.244;2022-12-20T13:16:04;10.25;;;7.90;;
11414;SDS011;5763;42.714;23.244;2022-12-20T13:21:42;9.85;;;7.55;;
11414;SDS011;5763;42.714;23.244;2022-12-20T13:27:30;8.85;;;7.07;;
11414;SDS011;5763;42.714;23.244;2022-12-20T13:35:54;9.35;;;6.68;;
11414;SDS011;5763;42.714;23.244;2022-12-20T13:38:37;8.25;;;6.20;;
11414;SDS011;5763;42.714;23.244;2022-12-20T13:41:18;9.10;;;6.30;;
11414;SDS011;5763;42.714;23.244;2022-12-20T13:43:59;12.60;;;6.72;;
11414;SDS011;5763;42.714;23.244;2022-12-20T13:46:41;9.93;;;7.18;;
11414;SDS011;5763;42.714;23.244;2022-12-20T13:49:14;10.52;;;6.40;;
11414;SDS011;5763;42.714;23.244;2022-12-20T13:51:48;10.25;;;6.38;;
11414;SDS011;5763;42.714;23.244;2022-12-20T13:54:41;9.48;;;6.85;;
11414;SDS011;5763;42.714;23.244;2022-12-20T13:57:13;10.73;;;7.00;;
11414;SDS011;5763;42.714;23.244;2022-12-20T13:59:44;11.00;;;7.22;;
11414;SDS011;5763;42.714;23.244;2022-12-20T14:02:18;9.88;;;6.00;;
11414;SDS011;5763;42.714;23.244;2022-12-20T14:04:52;10.77;;;7.03;;
11414;SDS011;5763;42.714;23.244;2022-12-20T14:07:24;9.98;;;5.90;;
11414;SDS011;5763;42.714;23.244;2022-12-20T14:09:55;8.20;;;5.93;;
11414;SDS011;5763;42.714;23.244;2022-12-20T14:12:25;8.70;;;6.03;;
11414;SDS011;5763;42.714;23.244;2022-12-20T14:14:54;13.23;;;6.53;;
11414;SDS011;5763;42.714;23.244;2022-12-20T14:17:24;11.20;;;6.60;;
11414;SDS011;5763;42.714;23.244;2022-12-20T14:20:05;10.05;;;6.82;;
11414;SDS011;5763;42.714;23.244;2022-12-20T14:22:40;10.15;;;6.25;;
11414;SDS011;5763;42.714;23.244;2022-12-20T14:25:14;8.90;;;5.32;;
11414;SDS011;5763;42.714;23.244;2022-12-20T14:27:43;7.45;;;5.60;;
11414;SDS011;5763;42.714;23.244;2022-12-20T14:30:30;9.15;;;5.50;;
11414;SDS011;5763;42.714;23.244;2022-12-20T14:33:01;10.80;;;5.53;;
11414;SDS011;5763;42.714;23.244;2022-12-20T14:35:28;6.45;;;5.05;;
11414;SDS011;5763;42.714;23.244;2022-12-20T14:37:56;7.43;;;5.47;;
11414;SDS011;5763;42.714;23.244;2022-12-20T14:40:25;10.73;;;5.95;;
11414;SDS011;5763;42.714;23.244;2022-12-20T14:42:54;9.23;;;5.88;;
11414;SDS011;5763;42.714;23.244;2022-12-20T14:45:22;9.30;;;6.40;;
11414;SDS011;5763;42.714;23.244;2022-12-20T14:47:58;9.70;;;5.65;;
11414;SDS011;5763;42.714;23.244;2022-12-20T14:50:31;7.43;;;5.63;;
11414;SDS011;5763;42.714;23.244;2022-12-20T14:53:01;12.52;;;8.07;;
11414;SDS011;5763;42.714;23.244;2022-12-20T14:55:30;13.40;;;7.53;;
11414;SDS011;5763;42.714;23.244;2022-12-20T14:57:59;14.88;;;7.55;;
11414;SDS011;5763;42.714;23.244;2022-12-20T15:00:26;14.02;;;7.85;;
11414;SDS011;5763;42.714;23.244;2022-12-20T15:02:58;16.60;;;7.75;;
11414;SDS011;5763;42.714;23.244;2022-12-20T15:05:42;14.68;;;10.02;;
11414;SDS011;5763;42.714;23.244;2022-12-20T15:08:12;22.98;;;13.70;;
11414;SDS011;5763;42.714;23.244;2022-12-20T15:10:40;19.30;;;13.55;;
11414;SDS011;5763;42.714;23.244;2022-12-20T15:13:10;29.95;;;15.93;;
11414;SDS011;5763;42.714;23.244;2022-12-20T15:15:40;31.05;;;17.08;;
11414;SDS011;5763;42.714;23.244;2022-12-20T15:18:10;29.73;;;17.42;;
11414;SDS011;5763;42.714;23.244;2022-12-20T15:20:39;27.42;;;16.75;;
11414;SDS011;5763;42.714;23.244;2022-12-20T15:23:16;27.95;;;17.00;;
11414;SDS011;5763;42.714;23.244;2022-12-20T15:25:45;24.80;;;15.55;;
11414;SDS011;5763;42.714;23.244;2022-12-20T15:28:14;21.08;;;14.98;;
11414;SDS011;5763;42.714;23.244;2022-12-20T15:30:43;23.88;;;15.13;;